createdAt,value
2022-09-20T00:00:46.593Z,85.86
2022-09-20T00:03:14.113Z,85.85
2022-09-20T00:05:43.051Z,85.42
2022-09-20T00:08:13.133Z,86.04
2022-09-20T00:10:39.935Z,86.06
2022-09-20T00:13:08.427Z,86.35
2022-09-20T00:15:39.764Z,86.91
2022-09-20T00:18:06.066Z,86.72
2022-09-20T00:20:32.370Z,86.67
2022-09-20T00:22:58.658Z,86.48
2022-09-20T00:25:24.979Z,86.84
2022-09-20T00:27:51.287Z,87.60
2022-09-20T00:30:17.611Z,87.18
2022-09-20T00:32:43.889Z,87.40
2022-09-20T00:35:10.318Z,86.95
2022-09-20T00:37:44.091Z,86.08
2022-09-20T00:40:15.418Z,86.58
2022-09-20T00:42:41.794Z,86.71
2022-09-20T00:45:19.567Z,87.19
2022-09-20T00:48:25.073Z,87.35
2022-09-20T00:50:57.819Z,87.41
2022-09-20T00:53:31.800Z,87.18
2022-09-20T00:56:03.605Z,87.96
2022-09-20T00:58:35.721Z,87.73
2022-09-20T01:01:04.575Z,88.86
2022-09-20T01:03:32.717Z,89.42
2022-09-20T01:06:03.194Z,89.57
2022-09-20T01:08:30.925Z,89.34
2022-09-20T01:10:57.474Z,88.81
2022-09-20T01:13:23.783Z,89.39
2022-09-20T01:15:51.691Z,89.48
2022-09-20T01:18:20.491Z,89.68
2022-09-20T01:20:47.777Z,89.04
2022-09-20T01:23:32.252Z,89.62
2022-09-20T01:26:18.575Z,90.14
2022-09-20T01:28:49.972Z,90.22
2022-09-20T01:31:25.240Z,90.82
2022-09-20T01:34:06.376Z,91.11
2022-09-20T01:37:09.299Z,90.53
2022-09-20T01:40:01.284Z,91.04
2022-09-20T01:42:36.062Z,90.96
2022-09-20T01:45:20.809Z,90.98
2022-09-20T01:47:53.519Z,91.09
2022-09-20T01:50:29.618Z,91.69
2022-09-20T01:53:16.299Z,90.76
2022-09-20T01:56:03.933Z,91.80
2022-09-20T01:59:06.958Z,91.28
2022-09-20T02:01:53.176Z,91.33
2022-09-20T02:04:39.781Z,91.21
2022-09-20T02:07:28.632Z,91.58
2022-09-20T02:10:10.205Z,91.66
2022-09-20T02:12:53.011Z,91.60
2022-09-20T02:15:44.057Z,91.36
2022-09-20T02:18:35.231Z,91.14
2022-09-20T02:21:38.985Z,91.31
2022-09-20T02:24:28.833Z,90.49
2022-09-20T02:27:21.832Z,90.67
2022-09-20T02:29:53.017Z,90.22
2022-09-20T02:32:44.350Z,90.15
2022-09-20T02:35:19.651Z,89.73
2022-09-20T02:37:59.853Z,89.70
2022-09-20T02:40:33.628Z,90.19
2022-09-20T02:43:27.907Z,89.88
2022-09-20T02:46:12.633Z,89.48
2022-09-20T02:48:44.137Z,90.01
2022-09-20T02:51:24.410Z,90.30
2022-09-20T02:54:09.210Z,90.98
2022-09-20T02:56:51.161Z,91.40
2022-09-20T02:59:31.752Z,91.43
2022-09-20T03:02:24.741Z,91.35
2022-09-20T03:05:16.834Z,92.20
2022-09-20T03:07:58.098Z,91.83
2022-09-20T03:10:37.381Z,91.05
2022-09-20T03:13:15.694Z,91.85
2022-09-20T03:16:08.801Z,91.93
2022-09-20T03:19:12.891Z,91.96
2022-09-20T03:22:11.927Z,91.79
2022-09-20T03:25:17.689Z,92.22
2022-09-20T03:28:03.650Z,91.83
2022-09-20T03:30:51.222Z,92.53
2022-09-20T03:33:33.595Z,92.20
2022-09-20T03:36:12.024Z,91.79
2022-09-20T03:38:53.079Z,91.54
2022-09-20T03:42:01.388Z,91.59
2022-09-20T03:44:45.705Z,92.38
2022-09-20T03:47:34.952Z,92.77
2022-09-20T03:50:03.922Z,92.87
2022-09-20T03:53:07.928Z,92.58
2022-09-20T03:56:00.781Z,93.29
2022-09-20T03:58:54.237Z,92.94
2022-09-20T04:01:42.008Z,93.03
2022-09-20T04:04:33.262Z,92.77
2022-09-20T04:07:15.762Z,92.99
2022-09-20T04:09:48.121Z,92.53
2022-09-20T04:12:48.715Z,92.63
2022-09-20T04:15:45.651Z,92.59
2022-09-20T04:18:38.346Z,92.35
2022-09-20T04:21:16.848Z,92.49
2022-09-20T04:23:47.394Z,92.62
2022-09-20T04:26:20.278Z,92.63
2022-09-20T04:28:53.478Z,92.90
2022-09-20T04:31:32.149Z,93.19
2022-09-20T04:34:01.797Z,93.66
2022-09-20T04:36:57.373Z,94.01
2022-09-20T04:39:49.175Z,93.71
2022-09-20T04:42:58.910Z,94.20
2022-09-20T04:46:00.598Z,94.10
2022-09-20T04:48:46.290Z,93.77
2022-09-20T04:51:57.333Z,93.49
2022-09-20T04:54:44.707Z,93.81
2022-09-20T04:57:26.572Z,93.50
2022-09-20T05:00:04.544Z,93.28
2022-09-20T05:03:03.871Z,93.45
2022-09-20T05:05:51.360Z,93.18
2022-09-20T05:08:48.714Z,93.31
2022-09-20T05:11:47.484Z,93.37
2022-09-20T05:14:51.753Z,93.56
2022-09-20T05:17:35.496Z,93.52
2022-09-20T05:20:53.940Z,93.95
2022-09-20T05:23:38.797Z,93.79
2022-09-20T05:26:33.427Z,93.57
2022-09-20T05:29:07.924Z,93.25
2022-09-20T05:31:46.167Z,93.30
2022-09-20T05:34:52.025Z,93.12
2022-09-20T05:37:37.590Z,92.91
2022-09-20T05:40:22.718Z,92.58
2022-09-20T05:43:08.774Z,92.25
2022-09-20T05:46:04.393Z,91.67
2022-09-20T05:48:39.671Z,91.48
2022-09-20T05:51:24.947Z,90.53
2022-09-20T05:54:00.391Z,90.14
2022-09-20T05:56:55.161Z,89.51
2022-09-20T05:59:37.527Z,89.08
2022-09-20T06:02:28.046Z,89.42
2022-09-20T06:05:15.598Z,89.03
2022-09-20T06:07:54.955Z,89.27
2022-09-20T06:10:27.287Z,88.34
2022-09-20T06:13:14.061Z,87.82
2022-09-20T06:16:02.005Z,87.47
2022-09-20T06:18:44.578Z,86.38
2022-09-20T06:21:31.890Z,86.77
2022-09-20T06:24:00.649Z,85.44
2022-09-20T06:26:36.572Z,85.62
2022-09-20T06:29:06.539Z,85.73
2022-09-20T06:31:33.075Z,84.85
2022-09-20T06:34:14.840Z,85.11
2022-09-20T06:36:48.619Z,85.57
2022-09-20T06:39:20.549Z,85.10
2022-09-20T06:41:46.904Z,84.43
2022-09-20T06:44:13.199Z,84.61
2022-09-20T06:46:39.510Z,84.43
2022-09-20T06:49:05.801Z,84.05
2022-09-20T06:51:37.494Z,84.41
2022-09-20T06:54:05.765Z,83.85
2022-09-20T06:56:35.029Z,83.61
2022-09-20T06:59:01.320Z,83.94
2022-09-20T07:01:30.636Z,83.66
2022-09-20T07:03:57.845Z,82.80
2022-09-20T07:06:24.181Z,82.25
2022-09-20T07:08:50.488Z,82.39
2022-09-20T07:11:17.526Z,81.55
2022-09-20T07:13:45.216Z,81.97
2022-09-20T07:16:13.405Z,80.54
2022-09-20T07:18:40.093Z,82.24
2022-09-20T07:21:07.044Z,81.98
2022-09-20T07:23:33.358Z,81.97
2022-09-20T07:25:59.659Z,82.39
2022-09-20T07:28:27.671Z,82.23
2022-09-20T07:30:54.200Z,82.86
2022-09-20T07:33:20.689Z,82.24
2022-09-20T07:35:50.301Z,82.14
2022-09-20T07:38:16.605Z,82.68
2022-09-20T07:40:43.204Z,82.87
2022-09-20T07:43:09.503Z,81.96
2022-09-20T07:45:36.589Z,81.83
2022-09-20T07:48:02.934Z,81.57
2022-09-20T07:50:29.220Z,80.69
2022-09-20T07:52:56.402Z,80.96
2022-09-20T07:55:22.709Z,80.63
2022-09-20T07:57:48.989Z,79.94
2022-09-20T08:00:15.418Z,79.11
2022-09-20T08:02:41.723Z,78.72
2022-09-20T08:05:08.387Z,78.06
2022-09-20T08:07:34.739Z,79.15
2022-09-20T08:10:01.079Z,79.24
2022-09-20T08:15:13.804Z,78.56
2022-09-20T08:17:40.253Z,78.20
2022-09-20T08:20:07.181Z,78.71
2022-09-20T08:22:33.536Z,77.80
2022-09-20T08:24:59.850Z,75.19
2022-09-20T08:27:26.190Z,74.61
2022-09-20T08:29:52.512Z,75.33
2022-09-20T08:32:18.850Z,76.35
2022-09-20T08:34:49.408Z,76.46
2022-09-20T08:37:15.894Z,75.00
2022-09-20T08:39:58.335Z,74.51
2022-09-20T08:42:37.683Z,74.83
2022-09-20T08:45:22.324Z,73.99
2022-09-20T08:47:58.860Z,75.61
2022-09-20T08:50:25.703Z,77.04
2022-09-20T08:53:00.121Z,74.73
2022-09-20T08:55:28.735Z,73.28
2022-09-20T08:57:57.298Z,71.96
2022-09-20T09:00:26.026Z,71.84
2022-09-20T09:02:55.995Z,71.59
2022-09-20T09:05:37.307Z,68.83
2022-09-20T09:08:10.320Z,66.92
2022-09-20T09:10:43.090Z,68.42
2022-09-20T09:13:20.500Z,65.72
2022-09-20T09:15:54.229Z,66.13
2022-09-20T09:18:20.591Z,68.56
2022-09-20T09:20:47.389Z,68.25
2022-09-20T09:23:23.795Z,68.24
2022-09-20T09:25:50.164Z,68.85
2022-09-20T09:28:20.467Z,68.49
2022-09-20T09:30:47.322Z,68.46
2022-09-20T09:33:16.346Z,68.11
2022-09-20T09:35:43.907Z,67.72
2022-09-20T09:38:19.709Z,67.33
2022-09-20T09:40:52.064Z,67.06
2022-09-20T09:43:27.242Z,66.93
2022-09-20T09:45:54.978Z,68.80
2022-09-20T09:48:30.267Z,67.42
2022-09-20T09:51:14.538Z,67.08
2022-09-20T09:53:42.509Z,64.47
2022-09-20T09:56:30.458Z,65.61
2022-09-20T09:59:11.697Z,65.56
2022-09-20T10:01:58.686Z,64.69
2022-09-20T10:04:37.186Z,64.97
2022-09-20T10:07:14.286Z,66.40
2022-09-20T10:09:49.768Z,64.79
2022-09-20T10:12:53.289Z,64.87
2022-09-20T10:15:41.574Z,63.59
2022-09-20T10:18:31.817Z,62.35
2022-09-20T10:21:16.990Z,64.09
2022-09-20T10:24:05.072Z,64.69
2022-09-20T10:27:01.860Z,65.68
2022-09-20T10:29:52.998Z,64.79
2022-09-20T10:32:27.996Z,65.26
2022-09-20T10:35:03.502Z,66.01
2022-09-20T10:37:49.504Z,67.74
2022-09-20T10:40:16.059Z,66.25
2022-09-20T10:42:48.988Z,66.77
2022-09-20T10:45:55.990Z,66.05
2022-09-20T10:48:30.891Z,66.92
2022-09-20T10:51:21.655Z,66.28
2022-09-20T10:54:14.855Z,66.10
2022-09-20T10:56:46.505Z,65.79
2022-09-20T10:59:35.102Z,66.59
2022-09-20T11:02:39.221Z,64.65
2022-09-20T11:05:16.509Z,64.74
2022-09-20T11:07:56.646Z,63.48
2022-09-20T11:10:33.554Z,62.60
2022-09-20T11:13:03.960Z,59.62
2022-09-20T11:15:39.398Z,56.34
2022-09-20T11:18:29.413Z,61.02
2022-09-20T11:21:20.926Z,63.82
2022-09-20T11:24:11.906Z,63.16
2022-09-20T11:26:44.776Z,62.46
2022-09-20T11:29:24.397Z,63.25
2022-09-20T11:31:53.464Z,60.84
2022-09-20T11:34:29.659Z,60.94
2022-09-20T11:36:59.180Z,61.63
2022-09-20T11:39:44.250Z,60.61
2022-09-20T11:42:16.185Z,60.93
2022-09-20T11:44:43.322Z,61.31
2022-09-20T11:47:42.843Z,59.64
2022-09-20T11:50:36.724Z,60.91
2022-09-20T11:53:36.478Z,59.33
2022-09-20T11:56:17.348Z,57.22
2022-09-20T11:58:53.157Z,56.96
2022-09-20T12:01:40.634Z,56.24
2022-09-20T12:04:31.854Z,56.34
2022-09-20T12:07:10.652Z,55.50
2022-09-20T12:09:43.694Z,54.22
2022-09-20T12:12:31.428Z,52.86
2022-09-20T12:15:01.412Z,57.12
2022-09-20T12:17:57.021Z,57.57
2022-09-20T12:20:49.588Z,55.88
2022-09-20T12:23:37.456Z,55.85
2022-09-20T12:26:20.478Z,55.65
2022-09-20T12:28:50.794Z,55.84
2022-09-20T12:31:23.208Z,55.05
2022-09-20T12:34:06.960Z,56.94
2022-09-20T12:36:36.819Z,58.22
2022-09-20T12:39:22.405Z,59.97
2022-09-20T12:42:11.501Z,56.42
2022-09-20T12:44:37.857Z,56.06
2022-09-20T12:47:10.331Z,56.89
2022-09-20T12:49:49.176Z,55.76
2022-09-20T12:52:24.709Z,56.33
2022-09-20T12:54:52.899Z,55.57
2022-09-20T12:57:30.556Z,57.14
2022-09-20T12:59:59.230Z,55.46
2022-09-20T13:03:02.326Z,53.07
2022-09-20T13:05:34.494Z,51.11
2022-09-20T13:08:14.287Z,51.63
2022-09-20T13:10:59.442Z,51.33
2022-09-20T13:13:51.855Z,51.67
2022-09-20T13:16:35.788Z,51.65
2022-09-20T13:19:06.096Z,51.93
2022-09-20T13:21:36.294Z,51.48
2022-09-20T13:24:03.479Z,50.27
2022-09-20T13:26:35.629Z,49.81
2022-09-20T13:29:03.164Z,49.58
2022-09-20T13:31:31.819Z,49.55
2022-09-20T13:34:21.410Z,49.65
2022-09-20T13:36:55.353Z,51.20
2022-09-20T13:39:27.635Z,51.12
2022-09-20T13:41:54.018Z,50.01
2022-09-20T13:44:20.425Z,49.93
2022-09-20T13:46:46.745Z,50.80
2022-09-20T13:49:18.494Z,52.31
2022-09-20T13:51:44.852Z,54.86
2022-09-20T13:54:37.629Z,59.06
2022-09-20T13:57:10.941Z,58.39
2022-09-20T13:59:43.779Z,59.76
2022-09-20T14:02:27.223Z,59.43
2022-09-20T14:04:55.601Z,61.55
2022-09-20T14:07:24.311Z,63.71
2022-09-20T14:09:50.656Z,67.12
2022-09-20T14:12:17.133Z,67.06
2022-09-20T14:14:44.472Z,67.49
2022-09-20T14:17:16.294Z,68.04
2022-09-20T14:19:43.837Z,65.55
2022-09-20T14:22:21.278Z,67.19
2022-09-20T14:25:19.763Z,67.51
2022-09-20T14:27:46.082Z,67.05
2022-09-20T14:30:33.410Z,66.12
2022-09-20T14:32:59.827Z,66.69
2022-09-20T14:35:26.485Z,66.63
2022-09-20T14:37:59.341Z,65.08
2022-09-20T14:40:40.509Z,69.39
2022-09-20T14:43:37.129Z,68.11
2022-09-20T14:46:16.992Z,63.35
2022-09-20T14:48:43.639Z,60.71
2022-09-20T14:51:15.668Z,60.31
2022-09-20T14:53:43.250Z,60.22
2022-09-20T14:56:11.902Z,61.05
2022-09-20T14:59:01.179Z,61.89
2022-09-20T15:01:27.539Z,62.63
2022-09-20T15:03:56.401Z,62.27
2022-09-20T15:06:23.125Z,66.69
2022-09-20T15:08:49.507Z,68.57
2022-09-20T15:11:19.216Z,70.05
2022-09-20T15:13:45.924Z,70.43
2022-09-20T15:16:18.399Z,69.56
2022-09-20T15:18:44.929Z,69.65
2022-09-20T15:21:11.338Z,69.10
2022-09-20T15:23:38.290Z,70.21
2022-09-20T15:26:05.453Z,70.62
2022-09-20T15:28:33.641Z,69.25
2022-09-20T15:30:59.948Z,70.12
2022-09-20T15:33:30.562Z,71.16
2022-09-20T15:35:57.320Z,69.25
2022-09-20T15:38:27.512Z,67.53
2022-09-20T15:40:56.956Z,67.48
2022-09-20T15:43:24.616Z,68.34
2022-09-20T15:46:16.251Z,66.59
2022-09-20T15:48:42.814Z,64.89
2022-09-20T15:51:10.632Z,65.17
2022-09-20T15:53:38.835Z,64.61
2022-09-20T15:56:17.246Z,64.56
2022-09-20T15:58:46.011Z,64.75
2022-09-20T16:01:14.848Z,64.47
2022-09-20T16:03:41.170Z,64.47
2022-09-20T16:06:10.988Z,64.81
2022-09-20T16:08:42.340Z,64.76
2022-09-20T16:11:13.459Z,64.69
2022-09-20T16:13:40.473Z,64.54
2022-09-20T16:16:09.201Z,64.77
2022-09-20T16:18:39.216Z,64.74
2022-09-20T16:21:07.217Z,64.63
2022-09-20T16:23:33.500Z,64.33
2022-09-20T16:25:59.853Z,65.19
2022-09-20T16:28:26.626Z,65.65
2022-09-20T16:30:57.065Z,66.96
2022-09-20T16:33:23.524Z,66.74
2022-09-20T16:35:50.612Z,66.17
2022-09-20T16:38:20.030Z,66.80
2022-09-20T16:40:50.626Z,66.20
2022-09-20T16:43:17.948Z,67.41
2022-09-20T16:45:44.849Z,67.11
2022-09-20T16:48:11.400Z,67.81
2022-09-20T16:50:37.708Z,68.20
2022-09-20T16:53:07.366Z,68.33
2022-09-20T16:55:33.665Z,68.30
2022-09-20T16:58:08.868Z,69.19
2022-09-20T17:00:35.241Z,69.17
2022-09-20T17:03:01.649Z,69.61
2022-09-20T17:05:28.113Z,69.87
2022-09-20T17:07:54.527Z,70.95
2022-09-20T17:10:41.128Z,70.15
2022-09-20T17:13:09.971Z,68.99
2022-09-20T17:15:36.748Z,68.79
2022-09-20T17:18:03.362Z,69.18
2022-09-20T17:20:29.663Z,68.93
2022-09-20T17:22:59.892Z,69.61
2022-09-20T17:25:26.499Z,69.83
2022-09-20T17:28:03.828Z,68.09
2022-09-20T17:30:30.777Z,67.85
2022-09-20T17:32:57.380Z,68.35
2022-09-20T17:35:23.864Z,69.25
2022-09-20T17:37:50.450Z,70.75
2022-09-20T17:40:16.811Z,71.16
2022-09-20T17:42:44.025Z,72.36
2022-09-20T17:45:10.609Z,72.79
2022-09-20T17:47:39.960Z,73.58
2022-09-20T17:50:06.555Z,73.98
2022-09-20T17:52:36.140Z,74.85
2022-09-20T17:55:02.433Z,76.02
2022-09-20T17:57:29.085Z,76.54
2022-09-20T17:59:55.831Z,77.69
2022-09-20T18:02:25.413Z,79.53
2022-09-20T18:04:52.565Z,80.58
2022-09-20T18:07:22.259Z,81.03
2022-09-20T18:09:48.592Z,81.83
2022-09-20T18:12:18.885Z,82.17
2022-09-20T18:14:50.082Z,82.57
2022-09-20T18:17:16.402Z,82.50
2022-09-20T18:19:42.704Z,82.47
2022-09-20T18:22:09.004Z,83.13
2022-09-20T18:24:41.481Z,83.64
2022-09-20T18:27:07.789Z,83.71
2022-09-20T18:29:34.081Z,83.20
2022-09-20T18:32:00.474Z,83.67
2022-09-20T18:34:28.051Z,83.41
2022-09-20T18:36:56.846Z,82.80
2022-09-20T18:39:24.993Z,83.19
2022-09-20T18:41:52.014Z,83.67
2022-09-20T18:44:19.183Z,83.97
2022-09-20T18:46:46.777Z,84.39
2022-09-20T18:49:14.198Z,84.45
2022-09-20T18:51:41.731Z,84.72
2022-09-20T18:54:09.723Z,84.44
2022-09-20T18:56:38.447Z,85.08
2022-09-20T18:59:07.925Z,85.27
2022-09-20T19:02:05.272Z,85.32
2022-09-20T19:05:16.480Z,85.84
2022-09-20T19:07:58.623Z,86.52
2022-09-20T19:10:58.905Z,87.32
2022-09-20T19:13:43.595Z,87.81
2022-09-20T19:16:28.712Z,88.14
2022-09-20T19:19:20.113Z,88.25
2022-09-20T19:21:57.317Z,88.34
2022-09-20T19:25:01.001Z,87.82
2022-09-20T19:27:28.139Z,87.64
2022-09-20T19:29:54.894Z,88.17
2022-09-20T19:32:21.492Z,88.47
2022-09-20T19:34:51.646Z,88.49
2022-09-20T19:37:44.157Z,88.84
2022-09-20T19:40:33.699Z,89.14
2022-09-20T19:43:15.822Z,89.24
2022-09-20T19:46:16.465Z,89.36
2022-09-20T19:49:02.449Z,88.97
2022-09-20T19:51:31.643Z,89.26
2022-09-20T19:53:58.090Z,89.26
2022-09-20T19:56:31.160Z,89.03
2022-09-20T19:58:57.745Z,89.41
2022-09-20T20:01:25.306Z,89.27
2022-09-20T20:03:54.886Z,89.53
2022-09-20T20:06:40.909Z,89.68
2022-09-20T20:09:15.411Z,90.13
2022-09-20T20:12:05.572Z,90.29
2022-09-20T20:15:02.495Z,90.30
2022-09-20T20:17:48.378Z,89.94
2022-09-20T20:20:28.800Z,90.04
2022-09-20T20:23:23.219Z,89.61
2022-09-20T20:26:05.531Z,89.77
2022-09-20T20:28:31.949Z,89.52
2022-09-20T20:31:00.239Z,89.37
2022-09-20T20:33:26.684Z,89.51
2022-09-20T20:35:54.483Z,89.34
2022-09-20T20:38:21.530Z,89.54
2022-09-20T20:40:47.822Z,89.65
2022-09-20T20:43:14.110Z,89.75
2022-09-20T20:45:49.515Z,90.10
2022-09-20T20:48:15.801Z,90.52
2022-09-20T20:50:42.088Z,91.20
2022-09-20T20:53:08.383Z,91.47
2022-09-20T20:55:34.670Z,92.18
2022-09-20T20:58:00.962Z,92.51
2022-09-20T21:00:28.077Z,92.60
2022-09-20T21:02:59.129Z,92.70
2022-09-20T21:05:26.950Z,92.36
2022-09-20T21:07:53.618Z,91.88
2022-09-20T21:10:20.474Z,91.78
2022-09-20T21:12:46.829Z,91.98
2022-09-20T21:15:13.187Z,91.69
2022-09-20T21:17:39.482Z,92.01
2022-09-20T21:20:06.209Z,91.91
2022-09-20T21:22:32.506Z,91.71
2022-09-20T21:24:58.806Z,91.90
2022-09-20T21:27:25.107Z,91.94
2022-09-20T21:29:51.402Z,92.22
2022-09-20T21:32:17.703Z,91.75
2022-09-20T21:34:44.050Z,91.76
2022-09-20T21:37:10.326Z,91.71
2022-09-20T21:39:36.608Z,91.81
2022-09-20T21:42:02.947Z,91.94
2022-09-20T21:44:29.246Z,91.99
2022-09-20T21:46:55.527Z,91.78
2022-09-20T21:49:21.818Z,91.94
2022-09-20T21:51:48.098Z,92.07
2022-09-20T21:54:14.395Z,92.39
2022-09-20T21:56:40.703Z,92.32
2022-09-20T21:59:07.034Z,92.44
2022-09-20T22:01:37.008Z,92.63
2022-09-20T22:04:09.341Z,92.90
2022-09-20T22:06:38.907Z,93.15
2022-09-20T22:09:10.732Z,93.13
2022-09-20T22:11:43.112Z,93.20
2022-09-20T22:14:10.800Z,93.43
2022-09-20T22:16:39.598Z,93.60
2022-09-20T22:19:07.976Z,93.50
2022-09-20T22:21:36.795Z,93.87
2022-09-20T22:24:05.937Z,93.84
2022-09-20T22:26:37.756Z,93.87
2022-09-20T22:29:04.858Z,94.13
2022-09-20T22:31:33.563Z,94.33
2022-09-20T22:34:01.906Z,94.45
2022-09-20T22:36:30.993Z,94.71
2022-09-20T22:38:57.322Z,94.50
2022-09-20T22:41:24.530Z,94.22
2022-09-20T22:43:50.945Z,93.99
2022-09-20T22:46:22.601Z,93.72
2022-09-20T22:48:49.339Z,93.98
2022-09-20T22:51:27.130Z,94.25
2022-09-20T22:53:53.637Z,93.90
2022-09-20T22:56:30.731Z,93.74
2022-09-20T22:58:59.520Z,93.69
2022-09-20T23:01:30.857Z,93.85
2022-09-20T23:04:05.625Z,93.44
2022-09-20T23:06:33.394Z,93.28
2022-09-20T23:09:01.435Z,92.84
2022-09-20T23:11:29.151Z,93.08
2022-09-20T23:13:58.765Z,93.30
2022-09-20T23:16:27.291Z,93.77
2022-09-20T23:18:54.689Z,93.79
2022-09-20T23:21:21.364Z,94.03
2022-09-20T23:23:55.760Z,93.86
2022-09-20T23:26:23.229Z,93.66
2022-09-20T23:29:07.542Z,93.96
2022-09-20T23:31:35.671Z,93.65
2022-09-20T23:34:04.480Z,93.79
2022-09-20T23:36:34.595Z,93.77
2022-09-20T23:39:01.135Z,93.87
2022-09-20T23:41:28.444Z,94.23
2022-09-20T23:43:55.351Z,94.46
2022-09-20T23:46:23.001Z,94.32
2022-09-20T23:48:49.497Z,94.61
2022-09-20T23:51:18.411Z,94.82
2022-09-20T23:53:45.002Z,95.26
2022-09-20T23:56:12.726Z,95.33
2022-09-20T23:58:40.986Z,95.47
